sensor_id;sensor_type;location;lat;lon;timestamp;P1;durP1;ratioP1;P2;durP2;ratioP2
41480;SDS011;27217;51.220;5.308;2023-07-08T00:00:00;7.60;;;2.85;;
41480;SDS011;27217;51.220;5.308;2023-07-08T00:02:32;7.82;;;3.40;;
41480;SDS011;27217;51.220;5.308;2023-07-08T00:04:58;5.85;;;2.95;;
41480;SDS011;27217;51.220;5.308;2023-07-08T00:07:24;7.70;;;3.33;;
41480;SDS011;27217;51.220;5.308;2023-07-08T00:09:50;7.40;;;2.95;;
41480;SDS011;27217;51.220;5.308;2023-07-08T00:12:16;8.63;;;2.53;;
41480;SDS011;27217;51.220;5.308;2023-07-08T00:14:41;9.02;;;3.28;;
41480;SDS011;27217;51.220;5.308;2023-07-08T00:17:11;6.53;;;2.80;;
41480;SDS011;27217;51.220;5.308;2023-07-08T00:19:37;7.80;;;2.85;;
41480;SDS011;27217;51.220;5.308;2023-07-08T00:22:08;6.00;;;2.75;;
41480;SDS011;27217;51.220;5.308;2023-07-08T00:24:41;4.22;;;3.35;;
41480;SDS011;27217;51.220;5.308;2023-07-08T00:27:09;10.48;;;3.30;;
41480;SDS011;27217;51.220;5.308;2023-07-08T00:29:37;7.65;;;3.17;;
41480;SDS011;27217;51.220;5.308;2023-07-08T00:32:10;6.63;;;3.03;;
41480;SDS011;27217;51.220;5.308;2023-07-08T00:34:37;8.27;;;3.05;;
41480;SDS011;27217;51.220;5.308;2023-07-08T00:37:03;6.45;;;3.13;;
41480;SDS011;27217;51.220;5.308;2023-07-08T00:39:30;11.52;;;3.00;;
41480;SDS011;27217;51.220;5.308;2023-07-08T00:42:00;7.80;;;3.40;;
41480;SDS011;27217;51.220;5.308;2023-07-08T00:44:27;6.20;;;3.35;;
41480;SDS011;27217;51.220;5.308;2023-07-08T00:47:03;4.65;;;3.35;;
41480;SDS011;27217;51.220;5.308;2023-07-08T00:54:50;7.43;;;3.53;;
41480;SDS011;27217;51.220;5.308;2023-07-08T00:57:24;10.23;;;3.90;;
41480;SDS011;27217;51.220;5.308;2023-07-08T01:00:12;7.15;;;3.38;;
41480;SDS011;27217;51.220;5.308;2023-07-08T01:02:43;7.22;;;3.25;;
41480;SDS011;27217;51.220;5.308;2023-07-08T01:05:17;12.80;;;3.70;;
41480;SDS011;27217;51.220;5.308;2023-07-08T01:07:49;10.07;;;3.35;;
41480;SDS011;27217;51.220;5.308;2023-07-08T01:10:20;5.68;;;3.42;;
41480;SDS011;27217;51.220;5.308;2023-07-08T01:12:53;8.48;;;3.53;;
41480;SDS011;27217;51.220;5.308;2023-07-08T01:15:21;8.95;;;3.30;;
41480;SDS011;27217;51.220;5.308;2023-07-08T01:17:51;9.63;;;3.95;;
41480;SDS011;27217;51.220;5.308;2023-07-08T01:20:18;7.05;;;3.65;;
41480;SDS011;27217;51.220;5.308;2023-07-08T01:22:45;5.93;;;3.70;;
41480;SDS011;27217;51.220;5.308;2023-07-08T01:25:11;8.68;;;3.65;;
41480;SDS011;27217;51.220;5.308;2023-07-08T01:27:39;11.10;;;3.75;;
41480;SDS011;27217;51.220;5.308;2023-07-08T01:30:08;6.32;;;4.07;;
41480;SDS011;27217;51.220;5.308;2023-07-08T01:32:37;7.85;;;3.35;;
41480;SDS011;27217;51.220;5.308;2023-07-08T01:35:08;10.75;;;4.10;;
41480;SDS011;27217;51.220;5.308;2023-07-08T01:37:37;6.80;;;3.28;;
41480;SDS011;27217;51.220;5.308;2023-07-08T01:40:26;6.07;;;3.60;;
41480;SDS011;27217;51.220;5.308;2023-07-08T01:42:54;5.95;;;3.50;;
41480;SDS011;27217;51.220;5.308;2023-07-08T01:45:23;7.10;;;4.18;;
41480;SDS011;27217;51.220;5.308;2023-07-08T01:47:51;10.82;;;4.10;;
41480;SDS011;27217;51.220;5.308;2023-07-08T01:50:30;8.25;;;4.63;;
41480;SDS011;27217;51.220;5.308;2023-07-08T01:52:58;7.45;;;3.50;;
41480;SDS011;27217;51.220;5.308;2023-07-08T01:55:26;9.23;;;3.95;;
41480;SDS011;27217;51.220;5.308;2023-07-08T01:57:55;7.68;;;4.03;;
41480;SDS011;27217;51.220;5.308;2023-07-08T02:00:21;8.88;;;3.53;;
41480;SDS011;27217;51.220;5.308;2023-07-08T02:02:48;15.60;;;3.67;;
41480;SDS011;27217;51.220;5.308;2023-07-08T02:05:15;10.63;;;4.15;;
41480;SDS011;27217;51.220;5.308;2023-07-08T02:07:40;9.98;;;3.30;;
41480;SDS011;27217;51.220;5.308;2023-07-08T02:10:07;6.57;;;3.50;;
41480;SDS011;27217;51.220;5.308;2023-07-08T02:12:33;11.02;;;4.05;;
41480;SDS011;27217;51.220;5.308;2023-07-08T02:14:59;9.20;;;3.65;;
41480;SDS011;27217;51.220;5.308;2023-07-08T02:17:26;8.30;;;4.00;;
41480;SDS011;27217;51.220;5.308;2023-07-08T02:19:54;10.85;;;4.47;;
41480;SDS011;27217;51.220;5.308;2023-07-08T02:22:20;9.02;;;3.88;;
41480;SDS011;27217;51.220;5.308;2023-07-08T02:24:47;10.88;;;3.70;;
41480;SDS011;27217;51.220;5.308;2023-07-08T02:27:13;11.98;;;4.50;;
41480;SDS011;27217;51.220;5.308;2023-07-08T02:29:39;8.70;;;3.63;;
41480;SDS011;27217;51.220;5.308;2023-07-08T02:32:06;8.93;;;4.30;;
41480;SDS011;27217;51.220;5.308;2023-07-08T02:34:31;9.30;;;4.53;;
41480;SDS011;27217;51.220;5.308;2023-07-08T02:36:57;11.82;;;4.18;;
41480;SDS011;27217;51.220;5.308;2023-07-08T02:39:23;9.77;;;4.55;;
41480;SDS011;27217;51.220;5.308;2023-07-08T02:41:49;8.07;;;4.13;;
41480;SDS011;27217;51.220;5.308;2023-07-08T02:44:15;7.25;;;4.28;;
41480;SDS011;27217;51.220;5.308;2023-07-08T02:46:40;10.65;;;4.75;;
41480;SDS011;27217;51.220;5.308;2023-07-08T02:49:06;9.55;;;4.10;;
41480;SDS011;27217;51.220;5.308;2023-07-08T02:51:32;9.95;;;4.45;;
41480;SDS011;27217;51.220;5.308;2023-07-08T02:53:58;10.10;;;4.68;;
41480;SDS011;27217;51.220;5.308;2023-07-08T02:56:24;5.57;;;4.18;;
41480;SDS011;27217;51.220;5.308;2023-07-08T02:58:51;9.05;;;4.57;;
41480;SDS011;27217;51.220;5.308;2023-07-08T03:01:17;9.88;;;4.95;;
41480;SDS011;27217;51.220;5.308;2023-07-08T03:03:44;11.38;;;5.10;;
41480;SDS011;27217;51.220;5.308;2023-07-08T03:06:11;6.97;;;4.30;;
41480;SDS011;27217;51.220;5.308;2023-07-08T03:08:37;15.10;;;4.72;;
41480;SDS011;27217;51.220;5.308;2023-07-08T03:11:04;7.57;;;4.57;;
41480;SDS011;27217;51.220;5.308;2023-07-08T03:13:31;11.05;;;5.10;;
41480;SDS011;27217;51.220;5.308;2023-07-08T03:15:58;12.85;;;5.13;;
41480;SDS011;27217;51.220;5.308;2023-07-08T03:18:25;7.47;;;4.75;;
41480;SDS011;27217;51.220;5.308;2023-07-08T03:20:52;17.67;;;5.55;;
41480;SDS011;27217;51.220;5.308;2023-07-08T03:23:20;12.38;;;5.20;;
41480;SDS011;27217;51.220;5.308;2023-07-08T03:25:47;9.70;;;5.03;;
41480;SDS011;27217;51.220;5.308;2023-07-08T03:28:14;8.90;;;4.93;;
41480;SDS011;27217;51.220;5.308;2023-07-08T03:30:43;7.40;;;4.88;;
41480;SDS011;27217;51.220;5.308;2023-07-08T03:33:10;11.52;;;5.85;;
41480;SDS011;27217;51.220;5.308;2023-07-08T03:35:37;7.15;;;4.60;;
41480;SDS011;27217;51.220;5.308;2023-07-08T03:38:05;11.07;;;5.65;;
41480;SDS011;27217;51.220;5.308;2023-07-08T03:40:31;15.93;;;5.15;;
41480;SDS011;27217;51.220;5.308;2023-07-08T03:43:03;11.45;;;4.88;;
41480;SDS011;27217;51.220;5.308;2023-07-08T03:45:29;9.35;;;4.70;;
41480;SDS011;27217;51.220;5.308;2023-07-08T03:47:55;10.65;;;5.38;;
41480;SDS011;27217;51.220;5.308;2023-07-08T03:50:22;9.73;;;5.00;;
41480;SDS011;27217;51.220;5.308;2023-07-08T03:52:50;7.65;;;5.32;;
41480;SDS011;27217;51.220;5.308;2023-07-08T03:55:17;9.55;;;5.45;;
41480;SDS011;27217;51.220;5.308;2023-07-08T03:57:44;6.38;;;4.80;;
41480;SDS011;27217;51.220;5.308;2023-07-08T04:00:09;8.05;;;4.80;;
41480;SDS011;27217;51.220;5.308;2023-07-08T04:02:37;9.65;;;4.82;;
41480;SDS011;27217;51.220;5.308;2023-07-08T04:05:04;18.20;;;5.00;;
41480;SDS011;27217;51.220;5.308;2023-07-08T04:07:31;9.40;;;4.85;;
41480;SDS011;27217;51.220;5.308;2023-07-08T04:09:58;7.03;;;4.88;;
41480;SDS011;27217;51.220;5.308;2023-07-08T04:12:24;8.90;;;5.43;;
41480;SDS011;27217;51.220;5.308;2023-07-08T04:14:50;15.13;;;5.30;;
41480;SDS011;27217;51.220;5.308;2023-07-08T04:17:17;7.05;;;5.03;;
41480;SDS011;27217;51.220;5.308;2023-07-08T04:19:43;8.73;;;5.05;;
41480;SDS011;27217;51.220;5.308;2023-07-08T04:22:10;11.90;;;4.90;;
41480;SDS011;27217;51.220;5.308;2023-07-08T04:24:36;12.70;;;5.40;;
41480;SDS011;27217;51.220;5.308;2023-07-08T04:27:02;12.07;;;5.63;;
41480;SDS011;27217;51.220;5.308;2023-07-08T04:29:28;7.68;;;5.20;;
41480;SDS011;27217;51.220;5.308;2023-07-08T04:31:55;9.55;;;5.40;;
41480;SDS011;27217;51.220;5.308;2023-07-08T04:34:20;13.45;;;5.70;;
41480;SDS011;27217;51.220;5.308;2023-07-08T04:36:46;12.13;;;5.43;;
41480;SDS011;27217;51.220;5.308;2023-07-08T04:39:13;14.73;;;5.32;;
41480;SDS011;27217;51.220;5.308;2023-07-08T04:41:39;8.57;;;5.40;;
41480;SDS011;27217;51.220;5.308;2023-07-08T04:44:06;8.65;;;5.25;;
41480;SDS011;27217;51.220;5.308;2023-07-08T04:46:54;12.10;;;5.20;;
41480;SDS011;27217;51.220;5.308;2023-07-08T04:49:21;11.07;;;5.55;;
41480;SDS011;27217;51.220;5.308;2023-07-08T04:51:49;15.05;;;5.50;;
41480;SDS011;27217;51.220;5.308;2023-07-08T04:54:17;11.73;;;6.00;;
41480;SDS011;27217;51.220;5.308;2023-07-08T04:56:46;7.13;;;4.93;;
41480;SDS011;27217;51.220;5.308;2023-07-08T04:59:15;8.82;;;5.20;;
41480;SDS011;27217;51.220;5.308;2023-07-08T05:01:42;13.20;;;5.32;;
41480;SDS011;27217;51.220;5.308;2023-07-08T05:04:10;11.23;;;5.43;;
41480;SDS011;27217;51.220;5.308;2023-07-08T05:06:38;14.05;;;5.07;;
41480;SDS011;27217;51.220;5.308;2023-07-08T05:09:04;9.85;;;5.03;;
41480;SDS011;27217;51.220;5.308;2023-07-08T05:11:30;11.82;;;5.60;;
41480;SDS011;27217;51.220;5.308;2023-07-08T05:13:57;12.70;;;5.68;;
41480;SDS011;27217;51.220;5.308;2023-07-08T05:16:23;8.32;;;5.03;;
41480;SDS011;27217;51.220;5.308;2023-07-08T05:18:50;15.43;;;5.35;;
41480;SDS011;27217;51.220;5.308;2023-07-08T05:21:16;8.88;;;4.97;;
41480;SDS011;27217;51.220;5.308;2023-07-08T05:23:44;9.23;;;5.68;;
41480;SDS011;27217;51.220;5.308;2023-07-08T05:26:10;9.07;;;5.63;;
41480;SDS011;27217;51.220;5.308;2023-07-08T05:28:36;10.65;;;5.28;;
41480;SDS011;27217;51.220;5.308;2023-07-08T05:31:02;11.27;;;5.70;;
41480;SDS011;27217;51.220;5.308;2023-07-08T05:33:28;10.82;;;6.10;;
41480;SDS011;27217;51.220;5.308;2023-07-08T05:35:56;15.98;;;6.05;;
41480;SDS011;27217;51.220;5.308;2023-07-08T05:38:22;10.20;;;5.60;;
41480;SDS011;27217;51.220;5.308;2023-07-08T05:40:49;12.15;;;5.53;;
41480;SDS011;27217;51.220;5.308;2023-07-08T05:43:16;16.45;;;6.53;;
41480;SDS011;27217;51.220;5.308;2023-07-08T05:45:42;9.43;;;5.40;;
41480;SDS011;27217;51.220;5.308;2023-07-08T05:48:08;10.40;;;5.50;;
41480;SDS011;27217;51.220;5.308;2023-07-08T05:50:35;14.40;;;6.25;;
41480;SDS011;27217;51.220;5.308;2023-07-08T05:53:00;12.40;;;5.35;;
41480;SDS011;27217;51.220;5.308;2023-07-08T05:55:26;15.38;;;5.63;;
41480;SDS011;27217;51.220;5.308;2023-07-08T05:57:52;11.40;;;6.40;;
41480;SDS011;27217;51.220;5.308;2023-07-08T06:00:17;13.75;;;6.45;;
41480;SDS011;27217;51.220;5.308;2023-07-08T06:02:43;15.15;;;5.75;;
41480;SDS011;27217;51.220;5.308;2023-07-08T06:05:09;19.40;;;5.70;;
41480;SDS011;27217;51.220;5.308;2023-07-08T06:07:35;11.88;;;5.38;;
41480;SDS011;27217;51.220;5.308;2023-07-08T06:10:01;12.57;;;5.63;;
41480;SDS011;27217;51.220;5.308;2023-07-08T06:12:27;11.07;;;5.82;;
41480;SDS011;27217;51.220;5.308;2023-07-08T06:14:53;16.77;;;6.07;;
41480;SDS011;27217;51.220;5.308;2023-07-08T06:17:19;15.88;;;5.95;;
41480;SDS011;27217;51.220;5.308;2023-07-08T06:19:45;10.77;;;5.47;;
41480;SDS011;27217;51.220;5.308;2023-07-08T06:22:11;12.40;;;6.03;;
41480;SDS011;27217;51.220;5.308;2023-07-08T06:24:37;11.32;;;5.68;;
41480;SDS011;27217;51.220;5.308;2023-07-08T06:27:03;15.80;;;5.47;;
41480;SDS011;27217;51.220;5.308;2023-07-08T06:29:30;10.65;;;5.35;;
41480;SDS011;27217;51.220;5.308;2023-07-08T06:31:56;12.80;;;5.13;;
41480;SDS011;27217;51.220;5.308;2023-07-08T06:34:22;12.50;;;5.60;;
41480;SDS011;27217;51.220;5.308;2023-07-08T06:36:49;14.07;;;5.50;;
41480;SDS011;27217;51.220;5.308;2023-07-08T06:39:15;10.02;;;5.15;;
41480;SDS011;27217;51.220;5.308;2023-07-08T06:41:41;12.95;;;5.40;;
41480;SDS011;27217;51.220;5.308;2023-07-08T06:44:08;18.52;;;6.47;;
41480;SDS011;27217;51.220;5.308;2023-07-08T06:46:34;13.07;;;5.75;;
41480;SDS011;27217;51.220;5.308;2023-07-08T06:48:59;10.15;;;5.95;;
41480;SDS011;27217;51.220;5.308;2023-07-08T06:51:25;9.57;;;5.60;;
41480;SDS011;27217;51.220;5.308;2023-07-08T06:53:52;7.88;;;4.90;;
41480;SDS011;27217;51.220;5.308;2023-07-08T06:56:18;11.50;;;5.85;;
41480;SDS011;27217;51.220;5.308;2023-07-08T06:58:44;12.60;;;5.65;;
41480;SDS011;27217;51.220;5.308;2023-07-08T07:01:11;11.85;;;5.78;;
41480;SDS011;27217;51.220;5.308;2023-07-08T07:03:37;14.68;;;6.43;;
41480;SDS011;27217;51.220;5.308;2023-07-08T07:06:03;14.68;;;5.25;;
41480;SDS011;27217;51.220;5.308;2023-07-08T07:08:29;15.48;;;5.80;;
41480;SDS011;27217;51.220;5.308;2023-07-08T07:10:55;10.43;;;5.55;;
41480;SDS011;27217;51.220;5.308;2023-07-08T07:13:21;8.07;;;5.07;;
41480;SDS011;27217;51.220;5.308;2023-07-08T07:15:49;13.20;;;5.65;;
41480;SDS011;27217;51.220;5.308;2023-07-08T07:18:16;14.90;;;6.30;;
41480;SDS011;27217;51.220;5.308;2023-07-08T07:20:46;13.50;;;6.25;;
41480;SDS011;27217;51.220;5.308;2023-07-08T07:23:19;15.10;;;6.30;;
41480;SDS011;27217;51.220;5.308;2023-07-08T07:25:45;14.80;;;5.95;;
41480;SDS011;27217;51.220;5.308;2023-07-08T07:28:15;19.35;;;6.20;;
41480;SDS011;27217;51.220;5.308;2023-07-08T07:30:42;14.73;;;6.40;;
41480;SDS011;27217;51.220;5.308;2023-07-08T07:33:09;13.73;;;6.10;;
41480;SDS011;27217;51.220;5.308;2023-07-08T07:35:35;11.50;;;6.22;;
41480;SDS011;27217;51.220;5.308;2023-07-08T07:38:00;14.52;;;6.65;;
41480;SDS011;27217;51.220;5.308;2023-07-08T07:40:27;14.50;;;6.95;;
41480;SDS011;27217;51.220;5.308;2023-07-08T07:42:52;17.10;;;5.97;;
41480;SDS011;27217;51.220;5.308;2023-07-08T07:45:18;11.80;;;6.35;;
41480;SDS011;27217;51.220;5.308;2023-07-08T07:47:47;13.65;;;6.97;;
41480;SDS011;27217;51.220;5.308;2023-07-08T07:50:13;10.60;;;5.68;;
41480;SDS011;27217;51.220;5.308;2023-07-08T07:52:40;14.85;;;6.95;;
41480;SDS011;27217;51.220;5.308;2023-07-08T07:55:06;10.02;;;6.35;;
41480;SDS011;27217;51.220;5.308;2023-07-08T07:57:33;17.52;;;6.18;;
41480;SDS011;27217;51.220;5.308;2023-07-08T07:59:58;12.05;;;6.40;;
41480;SDS011;27217;51.220;5.308;2023-07-08T08:02:25;11.45;;;6.20;;
41480;SDS011;27217;51.220;5.308;2023-07-08T08:04:51;11.93;;;5.90;;
41480;SDS011;27217;51.220;5.308;2023-07-08T08:07:16;16.30;;;6.28;;
41480;SDS011;27217;51.220;5.308;2023-07-08T08:09:42;11.88;;;6.30;;
41480;SDS011;27217;51.220;5.308;2023-07-08T08:12:09;12.85;;;6.53;;
41480;SDS011;27217;51.220;5.308;2023-07-08T08:14:36;13.13;;;6.18;;
41480;SDS011;27217;51.220;5.308;2023-07-08T08:17:02;16.08;;;6.15;;
41480;SDS011;27217;51.220;5.308;2023-07-08T08:19:29;13.68;;;6.82;;
41480;SDS011;27217;51.220;5.308;2023-07-08T08:21:54;16.55;;;6.53;;
41480;SDS011;27217;51.220;5.308;2023-07-08T08:24:20;12.00;;;6.82;;
41480;SDS011;27217;51.220;5.308;2023-07-08T08:26:46;17.60;;;6.60;;
41480;SDS011;27217;51.220;5.308;2023-07-08T08:29:12;13.68;;;7.10;;
41480;SDS011;27217;51.220;5.308;2023-07-08T08:31:38;15.77;;;6.95;;
41480;SDS011;27217;51.220;5.308;2023-07-08T08:34:04;10.38;;;6.75;;
41480;SDS011;27217;51.220;5.308;2023-07-08T08:36:30;13.65;;;6.53;;
41480;SDS011;27217;51.220;5.308;2023-07-08T08:38:55;16.20;;;7.75;;
41480;SDS011;27217;51.220;5.308;2023-07-08T08:41:31;10.70;;;6.60;;
41480;SDS011;27217;51.220;5.308;2023-07-08T08:43:59;12.38;;;6.40;;
41480;SDS011;27217;51.220;5.308;2023-07-08T08:49:27;11.75;;;6.55;;
41480;SDS011;27217;51.220;5.308;2023-07-08T08:51:59;12.68;;;6.53;;
41480;SDS011;27217;51.220;5.308;2023-07-08T08:54:25;12.00;;;6.30;;
41480;SDS011;27217;51.220;5.308;2023-07-08T08:59:55;13.35;;;7.68;;
41480;SDS011;27217;51.220;5.308;2023-07-08T09:02:36;11.25;;;6.60;;
41480;SDS011;27217;51.220;5.308;2023-07-08T09:05:12;11.82;;;7.07;;
41480;SDS011;27217;51.220;5.308;2023-07-08T09:10:46;15.18;;;6.65;;
41480;SDS011;27217;51.220;5.308;2023-07-08T09:13:24;13.68;;;7.00;;
41480;SDS011;27217;51.220;5.308;2023-07-08T09:18:55;10.02;;;6.90;;
41480;SDS011;27217;51.220;5.308;2023-07-08T09:21:43;13.73;;;6.15;;
41480;SDS011;27217;51.220;5.308;2023-07-08T09:24:40;14.20;;;6.80;;
41480;SDS011;27217;51.220;5.308;2023-07-08T09:27:09;12.98;;;6.15;;
41480;SDS011;27217;51.220;5.308;2023-07-08T09:29:35;13.93;;;6.60;;
41480;SDS011;27217;51.220;5.308;2023-07-08T09:32:20;12.90;;;6.35;;
41480;SDS011;27217;51.220;5.308;2023-07-08T09:34:52;16.55;;;6.45;;
41480;SDS011;27217;51.220;5.308;2023-07-08T09:37:23;14.77;;;6.78;;
41480;SDS011;27217;51.220;5.308;2023-07-08T09:39:55;8.90;;;5.82;;
41480;SDS011;27217;51.220;5.308;2023-07-08T09:42:23;12.48;;;6.43;;
41480;SDS011;27217;51.220;5.308;2023-07-08T09:44:56;13.35;;;7.10;;
41480;SDS011;27217;51.220;5.308;2023-07-08T09:47:28;12.25;;;6.72;;
41480;SDS011;27217;51.220;5.308;2023-07-08T09:49:58;13.80;;;7.75;;
41480;SDS011;27217;51.220;5.308;2023-07-08T09:52:25;12.07;;;6.68;;
41480;SDS011;27217;51.220;5.308;2023-07-08T09:54:54;12.52;;;6.97;;
41480;SDS011;27217;51.220;5.308;2023-07-08T09:57:30;12.77;;;6.72;;
41480;SDS011;27217;51.220;5.308;2023-07-08T09:59:59;12.82;;;7.00;;
41480;SDS011;27217;51.220;5.308;2023-07-08T10:05:13;14.23;;;6.72;;
41480;SDS011;27217;51.220;5.308;2023-07-08T10:07:55;9.98;;;6.60;;
41480;SDS011;27217;51.220;5.308;2023-07-08T10:10:27;14.65;;;6.40;;
41480;SDS011;27217;51.220;5.308;2023-07-08T10:13:19;12.80;;;6.63;;
41480;SDS011;27217;51.220;5.308;2023-07-08T10:15:49;9.63;;;7.05;;
41480;SDS011;27217;51.220;5.308;2023-07-08T10:18:26;23.35;;;6.53;;
41480;SDS011;27217;51.220;5.308;2023-07-08T10:23:43;16.77;;;6.55;;
41480;SDS011;27217;51.220;5.308;2023-07-08T10:32:14;13.63;;;6.28;;
41480;SDS011;27217;51.220;5.308;2023-07-08T10:35:00;15.25;;;6.85;;
41480;SDS011;27217;51.220;5.308;2023-07-08T10:48:42;9.18;;;6.10;;
41480;SDS011;27217;51.220;5.308;2023-07-08T10:51:24;13.50;;;6.90;;
41480;SDS011;27217;51.220;5.308;2023-07-08T10:54:13;11.30;;;6.75;;
41480;SDS011;27217;51.220;5.308;2023-07-08T10:57:03;10.48;;;6.88;;
41480;SDS011;27217;51.220;5.308;2023-07-08T11:07:45;10.95;;;6.60;;
41480;SDS011;27217;51.220;5.308;2023-07-08T11:10:34;10.48;;;6.57;;
41480;SDS011;27217;51.220;5.308;2023-07-08T11:13:09;13.32;;;6.60;;
41480;SDS011;27217;51.220;5.308;2023-07-08T11:15:44;10.00;;;6.00;;
41480;SDS011;27217;51.220;5.308;2023-07-08T11:18:25;12.15;;;5.90;;
41480;SDS011;27217;51.220;5.308;2023-07-08T11:21:06;12.65;;;6.63;;
41480;SDS011;27217;51.220;5.308;2023-07-08T11:26:14;11.68;;;5.85;;
41480;SDS011;27217;51.220;5.308;2023-07-08T11:28:47;11.30;;;6.55;;
41480;SDS011;27217;51.220;5.308;2023-07-08T11:31:16;9.38;;;6.03;;
41480;SDS011;27217;51.220;5.308;2023-07-08T11:33:42;8.80;;;5.97;;
41480;SDS011;27217;51.220;5.308;2023-07-08T11:36:09;9.98;;;6.07;;
41480;SDS011;27217;51.220;5.308;2023-07-08T11:38:36;8.13;;;6.15;;
41480;SDS011;27217;51.220;5.308;2023-07-08T11:41:12;11.88;;;6.63;;
41480;SDS011;27217;51.220;5.308;2023-07-08T11:46:21;9.35;;;6.00;;
41480;SDS011;27217;51.220;5.308;2023-07-08T11:48:51;9.77;;;5.53;;
41480;SDS011;27217;51.220;5.308;2023-07-08T11:51:52;10.02;;;6.03;;
41480;SDS011;27217;51.220;5.308;2023-07-08T11:54:45;10.18;;;6.85;;
41480;SDS011;27217;51.220;5.308;2023-07-08T11:57:14;7.38;;;5.18;;
41480;SDS011;27217;51.220;5.308;2023-07-08T11:59:43;13.73;;;5.60;;
41480;SDS011;27217;51.220;5.308;2023-07-08T12:02:15;8.88;;;5.65;;
41480;SDS011;27217;51.220;5.308;2023-07-08T12:07:50;10.65;;;6.00;;
41480;SDS011;27217;51.220;5.308;2023-07-08T12:12:52;12.85;;;6.63;;
41480;SDS011;27217;51.220;5.308;2023-07-08T12:17:49;11.70;;;6.28;;
41480;SDS011;27217;51.220;5.308;2023-07-08T12:20:19;9.38;;;5.95;;
41480;SDS011;27217;51.220;5.308;2023-07-08T12:22:48;10.57;;;5.82;;
41480;SDS011;27217;51.220;5.308;2023-07-08T12:25:15;16.75;;;6.32;;
41480;SDS011;27217;51.220;5.308;2023-07-08T12:27:47;24.83;;;7.72;;
41480;SDS011;27217;51.220;5.308;2023-07-08T12:30:13;10.40;;;6.40;;
41480;SDS011;27217;51.220;5.308;2023-07-08T12:32:41;13.70;;;5.72;;
41480;SDS011;27217;51.220;5.308;2023-07-08T12:35:16;9.77;;;5.85;;
41480;SDS011;27217;51.220;5.308;2023-07-08T12:37:47;9.13;;;5.80;;
41480;SDS011;27217;51.220;5.308;2023-07-08T12:40:14;7.57;;;5.93;;
41480;SDS011;27217;51.220;5.308;2023-07-08T12:42:40;8.73;;;5.53;;
41480;SDS011;27217;51.220;5.308;2023-07-08T12:45:12;9.20;;;5.43;;
41480;SDS011;27217;51.220;5.308;2023-07-08T12:47:42;8.60;;;5.93;;
41480;SDS011;27217;51.220;5.308;2023-07-08T12:50:09;7.10;;;5.05;;
41480;SDS011;27217;51.220;5.308;2023-07-08T12:52:35;9.52;;;5.75;;
41480;SDS011;27217;51.220;5.308;2023-07-08T12:55:02;9.13;;;5.45;;
41480;SDS011;27217;51.220;5.308;2023-07-08T12:57:29;9.63;;;5.20;;
41480;SDS011;27217;51.220;5.308;2023-07-08T12:59:54;9.02;;;6.22;;
41480;SDS011;27217;51.220;5.308;2023-07-08T13:02:20;11.75;;;6.10;;
41480;SDS011;27217;51.220;5.308;2023-07-08T13:04:57;10.63;;;6.10;;
41480;SDS011;27217;51.220;5.308;2023-07-08T13:07:32;15.20;;;5.63;;
41480;SDS011;27217;51.220;5.308;2023-07-08T13:10:00;8.30;;;5.00;;
41480;SDS011;27217;51.220;5.308;2023-07-08T13:12:27;9.30;;;5.50;;
41480;SDS011;27217;51.220;5.308;2023-07-08T13:14:54;10.60;;;5.45;;
41480;SDS011;27217;51.220;5.308;2023-07-08T13:19:48;15.02;;;5.07;;
41480;SDS011;27217;51.220;5.308;2023-07-08T13:22:16;12.43;;;5.72;;
41480;SDS011;27217;51.220;5.308;2023-07-08T13:24:46;8.15;;;5.32;;
41480;SDS011;27217;51.220;5.308;2023-07-08T13:27:20;10.73;;;5.63;;
41480;SDS011;27217;51.220;5.308;2023-07-08T13:29:47;7.70;;;5.30;;
41480;SDS011;27217;51.220;5.308;2023-07-08T13:32:15;6.60;;;5.03;;
41480;SDS011;27217;51.220;5.308;2023-07-08T13:34:41;8.23;;;5.22;;
41480;SDS011;27217;51.220;5.308;2023-07-08T13:37:10;7.20;;;4.57;;
41480;SDS011;27217;51.220;5.308;2023-07-08T13:39:44;6.53;;;4.97;;
41480;SDS011;27217;51.220;5.308;2023-07-08T13:42:11;10.98;;;5.97;;
41480;SDS011;27217;51.220;5.308;2023-07-08T13:44:44;11.20;;;5.68;;
41480;SDS011;27217;51.220;5.308;2023-07-08T13:47:28;7.80;;;4.72;;
41480;SDS011;27217;51.220;5.308;2023-07-08T13:50:05;9.18;;;4.95;;
41480;SDS011;27217;51.220;5.308;2023-07-08T13:52:43;9.45;;;4.75;;
41480;SDS011;27217;51.220;5.308;2023-07-08T13:55:12;7.82;;;4.07;;
41480;SDS011;27217;51.220;5.308;2023-07-08T13:57:43;6.78;;;4.47;;
41480;SDS011;27217;51.220;5.308;2023-07-08T14:00:09;8.27;;;4.28;;
41480;SDS011;27217;51.220;5.308;2023-07-08T14:02:44;7.60;;;4.60;;
41480;SDS011;27217;51.220;5.308;2023-07-08T14:05:11;10.02;;;4.30;;
41480;SDS011;27217;51.220;5.308;2023-07-08T14:07:39;6.85;;;4.15;;
41480;SDS011;27217;51.220;5.308;2023-07-08T14:10:09;9.50;;;4.88;;
41480;SDS011;27217;51.220;5.308;2023-07-08T14:12:37;10.07;;;4.80;;
41480;SDS011;27217;51.220;5.308;2023-07-08T14:15:03;9.35;;;4.65;;
41480;SDS011;27217;51.220;5.308;2023-07-08T14:17:29;7.40;;;4.47;;
41480;SDS011;27217;51.220;5.308;2023-07-08T14:19:55;7.43;;;4.72;;
41480;SDS011;27217;51.220;5.308;2023-07-08T14:22:25;14.75;;;5.07;;
41480;SDS011;27217;51.220;5.308;2023-07-08T14:24:53;10.15;;;5.32;;
41480;SDS011;27217;51.220;5.308;2023-07-08T14:27:19;8.60;;;4.75;;
41480;SDS011;27217;51.220;5.308;2023-07-08T14:29:47;8.57;;;4.93;;
41480;SDS011;27217;51.220;5.308;2023-07-08T14:32:21;10.00;;;5.53;;
41480;SDS011;27217;51.220;5.308;2023-07-08T14:34:50;9.93;;;5.43;;
41480;SDS011;27217;51.220;5.308;2023-07-08T14:37:18;14.65;;;5.43;;
41480;SDS011;27217;51.220;5.308;2023-07-08T14:39:44;9.00;;;5.68;;
41480;SDS011;27217;51.220;5.308;2023-07-08T14:42:11;9.40;;;5.53;;
41480;SDS011;27217;51.220;5.308;2023-07-08T14:44:39;8.85;;;5.05;;
41480;SDS011;27217;51.220;5.308;2023-07-08T14:47:11;8.65;;;5.50;;
41480;SDS011;27217;51.220;5.308;2023-07-08T14:49:38;11.55;;;5.53;;
41480;SDS011;27217;51.220;5.308;2023-07-08T14:52:05;8.63;;;4.95;;
41480;SDS011;27217;51.220;5.308;2023-07-08T14:54:31;8.88;;;5.03;;
41480;SDS011;27217;51.220;5.308;2023-07-08T14:56:57;6.43;;;5.03;;
41480;SDS011;27217;51.220;5.308;2023-07-08T14:59:24;9.00;;;4.90;;
41480;SDS011;27217;51.220;5.308;2023-07-08T15:01:54;10.95;;;5.97;;
41480;SDS011;27217;51.220;5.308;2023-07-08T15:04:21;11.60;;;5.20;;
41480;SDS011;27217;51.220;5.308;2023-07-08T15:06:47;11.32;;;5.43;;
41480;SDS011;27217;51.220;5.308;2023-07-08T15:09:15;11.75;;;6.15;;
41480;SDS011;27217;51.220;5.308;2023-07-08T15:11:43;9.25;;;5.63;;
41480;SDS011;27217;51.220;5.308;2023-07-08T15:14:14;9.88;;;4.82;;
41480;SDS011;27217;51.220;5.308;2023-07-08T15:16:46;8.38;;;5.30;;
41480;SDS011;27217;51.220;5.308;2023-07-08T15:19:12;6.45;;;4.63;;
41480;SDS011;27217;51.220;5.308;2023-07-08T15:21:39;12.32;;;5.10;;
41480;SDS011;27217;51.220;5.308;2023-07-08T15:24:09;12.60;;;4.65;;
41480;SDS011;27217;51.220;5.308;2023-07-08T15:26:37;17.13;;;5.30;;
41480;SDS011;27217;51.220;5.308;2023-07-08T15:29:04;9.60;;;5.35;;
41480;SDS011;27217;51.220;5.308;2023-07-08T15:31:32;17.50;;;5.13;;
41480;SDS011;27217;51.220;5.308;2023-07-08T15:33:59;10.75;;;4.45;;
41480;SDS011;27217;51.220;5.308;2023-07-08T15:36:24;19.35;;;5.10;;
41480;SDS011;27217;51.220;5.308;2023-07-08T15:38:51;19.25;;;5.10;;
41480;SDS011;27217;51.220;5.308;2023-07-08T15:41:21;11.90;;;4.82;;
41480;SDS011;27217;51.220;5.308;2023-07-08T15:43:49;13.80;;;4.80;;
41480;SDS011;27217;51.220;5.308;2023-07-08T15:46:18;6.95;;;4.65;;
41480;SDS011;27217;51.220;5.308;2023-07-08T15:48:44;8.55;;;4.38;;
41480;SDS011;27217;51.220;5.308;2023-07-08T15:51:14;4.95;;;3.05;;
41480;SDS011;27217;51.220;5.308;2023-07-08T15:56:09;7.65;;;3.75;;